sensor_id;sensor_type;location;lat;lon;timestamp;temperature;humidity
35244;DHT22;37916;52.160;21.066;2022-08-19T00:00:50;21.80;74.10
35244;DHT22;37916;52.160;21.066;2022-08-19T00:10:51;21.60;74.60
35244;DHT22;37916;52.160;21.066;2022-08-19T00:20:53;21.60;74.70
35244;DHT22;37916;52.160;21.066;2022-08-19T00:30:53;21.50;74.90
35244;DHT22;37916;52.160;21.066;2022-08-19T00:40:55;21.40;75.00
35244;DHT22;37916;52.160;21.066;2022-08-19T00:50:55;21.40;75.20
35244;DHT22;37916;52.160;21.066;2022-08-19T01:00:57;21.30;76.00
35244;DHT22;37916;52.160;21.066;2022-08-19T01:10:59;21.30;75.70
35244;DHT22;37916;52.160;21.066;2022-08-19T01:21:03;21.20;75.60
35244;DHT22;37916;52.160;21.066;2022-08-19T01:31:06;21.10;75.40
35244;DHT22;37916;52.160;21.066;2022-08-19T01:41:07;20.90;76.10
35244;DHT22;37916;52.160;21.066;2022-08-19T01:51:09;20.80;76.60
35244;DHT22;37916;52.160;21.066;2022-08-19T02:01:10;20.70;76.70
35244;DHT22;37916;52.160;21.066;2022-08-19T02:11:22;20.60;77.50
35244;DHT22;37916;52.160;21.066;2022-08-19T02:21:23;20.70;77.20
35244;DHT22;37916;52.160;21.066;2022-08-19T02:31:25;20.70;78.10
35244;DHT22;37916;52.160;21.066;2022-08-19T02:41:28;20.80;77.40
35244;DHT22;37916;52.160;21.066;2022-08-19T02:51:30;20.70;77.70
35244;DHT22;37916;52.160;21.066;2022-08-19T03:01:32;20.70;77.90
35244;DHT22;37916;52.160;21.066;2022-08-19T03:11:33;20.60;77.60
35244;DHT22;37916;52.160;21.066;2022-08-19T03:21:34;20.50;77.70
35244;DHT22;37916;52.160;21.066;2022-08-19T03:31:35;20.40;77.80
35244;DHT22;37916;52.160;21.066;2022-08-19T03:41:41;20.40;77.30
35244;DHT22;37916;52.160;21.066;2022-08-19T03:51:43;20.30;77.90
35244;DHT22;37916;52.160;21.066;2022-08-19T04:01:43;20.40;77.30
35244;DHT22;37916;52.160;21.066;2022-08-19T04:11:47;20.60;77.40
35244;DHT22;37916;52.160;21.066;2022-08-19T04:21:51;20.80;76.70
35244;DHT22;37916;52.160;21.066;2022-08-19T04:31:54;21.20;76.10
35244;DHT22;37916;52.160;21.066;2022-08-19T04:41:55;21.70;75.00
35244;DHT22;37916;52.160;21.066;2022-08-19T04:52:14;22.30;73.50
35244;DHT22;37916;52.160;21.066;2022-08-19T05:02:15;22.90;72.20
35244;DHT22;37916;52.160;21.066;2022-08-19T05:12:16;23.10;72.00
35244;DHT22;37916;52.160;21.066;2022-08-19T05:22:17;23.70;70.80
35244;DHT22;37916;52.160;21.066;2022-08-19T05:32:33;24.60;69.60
35244;DHT22;37916;52.160;21.066;2022-08-19T05:42:34;24.60;69.60
35244;DHT22;37916;52.160;21.066;2022-08-19T05:52:36;24.80;69.60
35244;DHT22;37916;52.160;21.066;2022-08-19T06:02:38;25.70;67.40
35244;DHT22;37916;52.160;21.066;2022-08-19T06:12:39;25.50;68.20
35244;DHT22;37916;52.160;21.066;2022-08-19T06:22:41;25.60;67.20
35244;DHT22;37916;52.160;21.066;2022-08-19T06:32:42;25.30;68.20
35244;DHT22;37916;52.160;21.066;2022-08-19T06:42:43;25.40;68.30
35244;DHT22;37916;52.160;21.066;2022-08-19T06:52:43;25.80;68.00
35244;DHT22;37916;52.160;21.066;2022-08-19T07:02:44;26.10;67.60
35244;DHT22;37916;52.160;21.066;2022-08-19T07:12:45;27.60;64.20
35244;DHT22;37916;52.160;21.066;2022-08-19T07:22:45;28.60;62.50
35244;DHT22;37916;52.160;21.066;2022-08-19T07:32:46;29.60;59.80
35244;DHT22;37916;52.160;21.066;2022-08-19T07:42:46;29.80;57.60
35244;DHT22;37916;52.160;21.066;2022-08-19T07:52:48;30.50;55.20
35244;DHT22;37916;52.160;21.066;2022-08-19T08:02:49;31.60;52.80
35244;DHT22;37916;52.160;21.066;2022-08-19T08:12:50;31.30;53.70
35244;DHT22;37916;52.160;21.066;2022-08-19T08:22:51;31.10;52.80
35244;DHT22;37916;52.160;21.066;2022-08-19T08:33:10;30.80;53.30
35244;DHT22;37916;52.160;21.066;2022-08-19T08:43:35;31.10;52.10
35244;DHT22;37916;52.160;21.066;2022-08-19T08:53:36;31.10;53.30
35244;DHT22;37916;52.160;21.066;2022-08-19T09:03:38;30.70;54.10
35244;DHT22;37916;52.160;21.066;2022-08-19T09:13:56;30.80;52.30
35244;DHT22;37916;52.160;21.066;2022-08-19T09:24:02;30.70;50.50
35244;DHT22;37916;52.160;21.066;2022-08-19T09:34:03;30.30;50.20
35244;DHT22;37916;52.160;21.066;2022-08-19T09:44:05;30.40;51.90
35244;DHT22;37916;52.160;21.066;2022-08-19T09:54:06;30.40;52.10
35244;DHT22;37916;52.160;21.066;2022-08-19T10:04:07;30.40;52.40
35244;DHT22;37916;52.160;21.066;2022-08-19T10:14:11;30.20;51.30
35244;DHT22;37916;52.160;21.066;2022-08-19T10:24:12;30.40;51.50
35244;DHT22;37916;52.160;21.066;2022-08-19T10:34:13;30.70;50.50
35244;DHT22;37916;52.160;21.066;2022-08-19T10:44:13;30.70;49.90
35244;DHT22;37916;52.160;21.066;2022-08-19T10:54:14;30.80;48.70
35244;DHT22;37916;52.160;21.066;2022-08-19T11:04:15;31.00;48.90
35244;DHT22;37916;52.160;21.066;2022-08-19T11:14:18;31.10;48.70
35244;DHT22;37916;52.160;21.066;2022-08-19T11:24:24;30.80;48.60
35244;DHT22;37916;52.160;21.066;2022-08-19T11:34:26;31.10;48.80
35244;DHT22;37916;52.160;21.066;2022-08-19T11:44:28;31.20;48.10
35244;DHT22;37916;52.160;21.066;2022-08-19T11:54:30;31.40;47.70
35244;DHT22;37916;52.160;21.066;2022-08-19T12:04:31;31.20;47.30
35244;DHT22;37916;52.160;21.066;2022-08-19T12:14:31;31.50;47.50
35244;DHT22;37916;52.160;21.066;2022-08-19T12:24:32;31.60;46.80
35244;DHT22;37916;52.160;21.066;2022-08-19T12:34:34;31.60;46.20
35244;DHT22;37916;52.160;21.066;2022-08-19T12:44:38;31.80;46.50
35244;DHT22;37916;52.160;21.066;2022-08-19T12:54:39;32.00;45.90
35244;DHT22;37916;52.160;21.066;2022-08-19T13:04:40;31.70;45.00
35244;DHT22;37916;52.160;21.066;2022-08-19T13:14:41;31.80;45.10
35244;DHT22;37916;52.160;21.066;2022-08-19T13:24:42;32.10;45.20
35244;DHT22;37916;52.160;21.066;2022-08-19T13:34:42;31.90;44.70
35244;DHT22;37916;52.160;21.066;2022-08-19T13:44:43;31.80;44.10
35244;DHT22;37916;52.160;21.066;2022-08-19T13:54:46;31.90;43.90
35244;DHT22;37916;52.160;21.066;2022-08-19T14:04:47;32.00;43.80
35244;DHT22;37916;52.160;21.066;2022-08-19T14:14:47;32.10;42.30
35244;DHT22;37916;52.160;21.066;2022-08-19T14:24:48;32.00;42.30
35244;DHT22;37916;52.160;21.066;2022-08-19T14:34:50;32.20;42.40
35244;DHT22;37916;52.160;21.066;2022-08-19T14:44:51;32.10;41.90
35244;DHT22;37916;52.160;21.066;2022-08-19T14:54:52;32.10;41.90
35244;DHT22;37916;52.160;21.066;2022-08-19T15:04:53;32.20;42.20
35244;DHT22;37916;52.160;21.066;2022-08-19T15:14:56;31.90;41.90
35244;DHT22;37916;52.160;21.066;2022-08-19T15:24:56;31.80;42.10
35244;DHT22;37916;52.160;21.066;2022-08-19T15:34:57;31.70;42.50
35244;DHT22;37916;52.160;21.066;2022-08-19T15:44:58;31.60;43.20
35244;DHT22;37916;52.160;21.066;2022-08-19T15:54:58;31.40;43.40
35244;DHT22;37916;52.160;21.066;2022-08-19T16:05:00;31.20;44.00
35244;DHT22;37916;52.160;21.066;2022-08-19T16:15:18;31.10;44.40
35244;DHT22;37916;52.160;21.066;2022-08-19T16:25:20;30.90;45.20
35244;DHT22;37916;52.160;21.066;2022-08-19T16:35:28;30.70;45.40
35244;DHT22;37916;52.160;21.066;2022-08-19T16:45:29;30.40;45.90
35244;DHT22;37916;52.160;21.066;2022-08-19T16:55:30;30.10;45.70
35244;DHT22;37916;52.160;21.066;2022-08-19T17:05:30;29.90;46.10
35244;DHT22;37916;52.160;21.066;2022-08-19T17:15:32;29.70;46.70
35244;DHT22;37916;52.160;21.066;2022-08-19T17:25:33;29.40;47.60
35244;DHT22;37916;52.160;21.066;2022-08-19T17:35:34;29.10;48.30
35244;DHT22;37916;52.160;21.066;2022-08-19T17:45:36;28.80;49.70
35244;DHT22;37916;52.160;21.066;2022-08-19T17:55:38;28.60;50.30
35244;DHT22;37916;52.160;21.066;2022-08-19T18:05:41;28.30;51.60
35244;DHT22;37916;52.160;21.066;2022-08-19T18:15:42;28.00;52.30
35244;DHT22;37916;52.160;21.066;2022-08-19T18:25:43;27.70;53.40
35244;DHT22;37916;52.160;21.066;2022-08-19T18:35:45;27.50;54.30
35244;DHT22;37916;52.160;21.066;2022-08-19T18:45:46;27.30;55.20
35244;DHT22;37916;52.160;21.066;2022-08-19T18:56:09;27.20;55.90
35244;DHT22;37916;52.160;21.066;2022-08-19T19:06:14;27.10;56.50
35244;DHT22;37916;52.160;21.066;2022-08-19T19:16:18;27.00;56.30
35244;DHT22;37916;52.160;21.066;2022-08-19T19:26:19;26.80;56.30
35244;DHT22;37916;52.160;21.066;2022-08-19T19:36:21;26.60;57.00
35244;DHT22;37916;52.160;21.066;2022-08-19T19:46:22;26.30;57.70
35244;DHT22;37916;52.160;21.066;2022-08-19T19:56:23;26.10;58.50
35244;DHT22;37916;52.160;21.066;2022-08-19T20:06:23;26.00;58.40
35244;DHT22;37916;52.160;21.066;2022-08-19T20:16:24;25.80;58.80
35244;DHT22;37916;52.160;21.066;2022-08-19T20:26:25;25.60;59.60
35244;DHT22;37916;52.160;21.066;2022-08-19T20:36:26;25.50;60.20
35244;DHT22;37916;52.160;21.066;2022-08-19T20:46:28;25.30;60.40
35244;DHT22;37916;52.160;21.066;2022-08-19T20:56:28;25.20;61.00
35244;DHT22;37916;52.160;21.066;2022-08-19T21:06:30;25.10;61.30
35244;DHT22;37916;52.160;21.066;2022-08-19T21:16:30;25.00;61.40
35244;DHT22;37916;52.160;21.066;2022-08-19T21:26:34;24.90;61.50
35244;DHT22;37916;52.160;21.066;2022-08-19T21:36:34;24.90;61.90
35244;DHT22;37916;52.160;21.066;2022-08-19T21:46:35;24.80;62.10
35244;DHT22;37916;52.160;21.066;2022-08-19T21:56:36;24.70;62.40
35244;DHT22;37916;52.160;21.066;2022-08-19T22:06:39;24.60;62.80
35244;DHT22;37916;52.160;21.066;2022-08-19T22:16:39;24.50;63.00
35244;DHT22;37916;52.160;21.066;2022-08-19T22:26:40;24.40;63.30
35244;DHT22;37916;52.160;21.066;2022-08-19T22:36:41;24.30;63.40
35244;DHT22;37916;52.160;21.066;2022-08-19T22:46:42;24.30;63.50
35244;DHT22;37916;52.160;21.066;2022-08-19T22:56:43;24.30;63.70
35244;DHT22;37916;52.160;21.066;2022-08-19T23:06:43;24.30;63.70
35244;DHT22;37916;52.160;21.066;2022-08-19T23:16:44;24.30;63.80
35244;DHT22;37916;52.160;21.066;2022-08-19T23:26:45;24.30;63.80
35244;DHT22;37916;52.160;21.066;2022-08-19T23:37:04;24.20;64.10
35244;DHT22;37916;52.160;21.066;2022-08-19T23:47:06;24.10;64.30
35244;DHT22;37916;52.160;21.066;2022-08-19T23:57:06;24.00;64.50
